• Join FlightAware (Why Join?)
  • Login
  • US Flag 
10:48AM EDT


 

Airport Tracker/Info


-or-


 

Live Flight TrackerFlight Track Log ✈ EJA922 ✈ 30-Jun-2013 ✈ KAPC - KSMO

Flight Track Log - Related Links

Times and Time Zones

All times are in EDT time to prevent confusion due to time zone crossing. See the EJA922 flight status page for this flight to view local times or setup timezone preferences in your user account.

Time Position Orientation Groundspeed Altitude Reporting Facility
EDT Latitude Longitude Course Direction KTS MPH feet Rate Location/Type
08:50PM 38.1947 -122.3042 180° South 190 219 1,500  Level Oakland Center
08:51PM 38.1706 -122.3764 247° West 226 260 5,300 3,600 Climbing Oakland Center
08:52PM 38.1019 -122.4078 200° South 252 290 9,000 3,120 Climbing Oakland Center
08:53PM 38.0178 -122.4458 200° South 305 351 11,800 2,460 Climbing Oakland Center
08:54PM 37.9178 -122.4328 174° South 360 414 14,100 2,220 Climbing Oakland Center
08:55PM 37.7556 -122.3057 117° Southeast  Level FlightAware Approximate
08:56PM 37.7059 -122.2000 180° South  Level FlightAware Approximate
08:56PM 37.8394 -122.3458 139° Southeast 369 425 16,400  Level Oakland Center
08:57PM 37.7614 -122.2592 139° Southeast 372 428 18,400 1,860 Climbing Oakland Center
08:58PM 37.6817 -122.1692 138° Southeast 379 436 20,200 1,680 Climbing Oakland Center
08:59PM 37.6019 -122.0797 138° Southeast 382 440 21,900 1,560 Climbing Oakland Center
09:00PM 37.5197 -121.9883 139° Southeast 390 449 23,500 1,680 Climbing Oakland Center
09:01PM 37.4197 -121.8767 138° Southeast 398 458 25,400 1,380 Climbing Oakland Center
09:02PM 37.3392 -121.7889 139° Southeast 407 468 26,400 780 Climbing Oakland Center
09:03PM 37.2503 -121.6931 139° Southeast 417 480 27,000 240 Climbing Oakland Center
09:04PM 37.1542 -121.5872 139° Southeast 447 514 27,000  Level Oakland Center
09:05PM 37.0478 -121.4667 138° Southeast 477 549 27,000  Level Oakland Center
09:06PM 36.9467 -121.3594 140° Southeast 479 551 27,000  Level Oakland Center
09:07PM 36.8489 -121.2511 138° Southeast 473 544 27,000  Level Oakland Center
09:08PM 36.7478 -121.1503 141° Southeast 469 540 27,000  Level Oakland Center
09:09PM 36.6281 -121.0222 139° Southeast 470 541 27,000  Level Oakland Center
09:10PM 36.5294 -120.9133 138° Southeast 474 545 27,000  Level Oakland Center
09:11PM 36.4300 -120.8061 139° Southeast 473 544 27,000  Level Oakland Center
09:12PM 36.3297 -120.6983 139° Southeast 475 547 27,000  Level Oakland Center
09:13PM 36.2286 -120.5928 140° Southeast 475 547 27,000  Level Oakland Center
09:14PM 36.1286 -120.4847 139° Southeast 476 548 27,000  Level Oakland Center
09:15PM 36.0283 -120.3792 140° Southeast 474 545 27,000  Level Oakland Center
09:16PM 35.9281 -120.2700 139° Southeast 477 549 27,000  Level Oakland Center
09:17PM 35.8267 -120.1658 140° Southeast 474 545 27,000  Level Oakland Center
09:18PM 35.7264 -120.0600 139° Southeast 472 543 27,000  Level Oakland Center
09:19PM 35.6247 -119.9569 141° Southeast 470 541 27,000  Level Oakland Center
09:20PM 35.5158 -119.8656 146° Southeast 471 542 27,000  Level Los Angeles Center
09:21PM 35.4072 -119.7722 145° Southeast 473 544 27,000  Level Los Angeles Center
09:22PM 35.2783 -119.6606 145° Southeast 470 541 27,000 -60 Level Los Angeles Center
09:23PM 35.1706 -119.5678 145° Southeast 472 543 26,900 -1,260 Descending Los Angeles Center
09:24PM 35.0619 -119.4758 145° Southeast 474 545 24,500 -2,580 Descending Los Angeles Center
09:25PM 34.9564 -119.3864 145° Southeast 465 535 21,700 -2,760 Descending Los Angeles Center
09:26PM 34.8567 -119.3014 145° Southeast 442 509 18,900 -2,820 Descending Los Angeles Center
09:27PM 34.7628 -119.2200 145° Southeast 418 481 15,900 -2,820 Descending Los Angeles Center
09:28PM 34.6692 -119.1425 146° Southeast 409 471 13,100 -2,460 Descending Los Angeles Center
09:29PM 34.5733 -119.0633 146° Southeast 382 440 10,900 -1,080 Descending Los Angeles Center
09:30PM 34.5122 -119.0136 146° Southeast 333 383 11,000 -600 Climbing Los Angeles Center
09:31PM 34.4231 -118.9211 139° Southeast 300 345 9,700 -1,020 Descending Los Angeles Center
09:32PM 34.3844 -118.8319 118° Southeast 303 349 8,900 -360 Descending Los Angeles Center
09:33PM 34.3458 -118.7514 120° Southeast 279 321 9,000 -120 Climbing Los Angeles Center
09:34PM 34.3075 -118.6689 119° Southeast 280 322 8,700 -540 Descending Los Angeles Center
09:36PM 34.2658 -118.5833 120° Southeast 292 336 7,900 -960 Descending Los Angeles Center
09:37PM 34.2269 -118.4978 119° Southeast 293 337 6,800 -1,140 Descending Los Angeles Center
09:38PM 34.1875 -118.4239 123° Southeast 267 307 5,600 -1,440 Descending Los Angeles Center
09:39PM 34.1378 -118.3569 132° Southeast 264 304 3,900 -1,500 Descending Los Angeles Center
09:40PM 34.0736 -118.3811 197° South 214 246 2,300 -1,380 Descending Los Angeles Center
09:41PM 34.0411 -118.4231 227° Southwest 184 212 900 -1,020 Descending Los Angeles Center
09:42PM 34.0122 -118.4556 223° Southwest 159 183 200 -720 Descending Los Angeles Center
09:44PM 34.0158 -118.4513 180° South  Level Estimated